Data for 04/29/2015

Time Sea-Level Adjusted Pressure Absolute Pressure Temperature Relative Humidity Dew Point   
(mb) (inHg) (mb) (inHg) (C) (F) (%) (C) (F)
00:05 1017 30.03 847 25.01 11.3 52.4 39 -2.2 28
00:10 1017 30.03 847 25.01 11.1 52 39 -2.1 28.2
00:15 1017 30.03 847 25.01 11.1 51.9 39 -2.3 27.8
00:20 1017 30.03 847 25.01 11.1 52 39 -2.4 27.7
00:25 1017 30.03 847 25.01 11.2 52.1 38 -2.7 27.2
00:30 1017 30.03 847 25.01 11.2 52.1 38 -2.6 27.3
00:35 1017 30.03 847 25.01 11.1 52 36 -3.3 26
00:40 1017 30.03 847 25.01 11.4 52.5 36 -3.2 26.2
00:45 1017 30.03 847 25.01 11.4 52.5 36 -3 26.6
00:50 1017 30.03 847 25.01 11.2 52.1 36 -3.2 26.3
00:55 1017 30.03 847 25.01 11.1 52 36 -3.2 26.2
01:00 1017 30.03 847 25.01 10.8 51.5 36 -3.6 25.6
01:05 1017 30.03 846 24.98 10.8 51.4 36 -3.6 25.5
01:10 1017 30.03 846 24.98 10.8 51.4 36 -3.6 25.5
01:15 1017 30.03 846 24.98 10.5 50.9 38 -3.2 26.3
01:20 1017 30.03 846 24.98 10.2 50.3 38 -3.3 26
01:25 1017 30.03 846 24.98 10.2 50.4 37 -3.6 25.4
01:30 1017 30.03 846 24.98 10.2 50.4 38 -3.4 25.8
01:35 1017 30.03 846 24.98 9.9 49.9 38 -3.6 25.5
01:40 1017 30.03 846 24.98 10 50 37 -4 24.7
01:45 1017 30.03 846 24.98 10.1 50.3 36 -4.1 24.6
01:50 1017 30.03 846 24.98 10.2 50.3 37 -3.9 25
01:55 1017 30.03 846 24.98 10 50.1 37 -3.8 25.1
02:00 1017 30.03 846 24.98 9.9 49.9 38 -3.8 25.2
02:05 1017 30.03 846 24.98 9.7 49.4 38 -3.9 25
02:10 1017 30.03 846 24.98 9.6 49.2 38 -4.1 24.6
02:15 1017 30.03 846 24.98 9.6 49.4 37 -4.3 24.3
02:20 1017 30.03 846 24.98 9.9 49.8 36 -4.5 23.9
02:25 1017 30.03 846 24.98 10.1 50.1 36 -4.2 24.5
02:30 1017 30.03 846 24.98 10 50 37 -4.1 24.7
02:35 1017 30.03 846 24.98 9.9 49.9 37 -4 24.8
02:40 1017 30.03 846 24.98 9.9 49.8 38 -3.8 25.1
02:45 1017 30.03 846 24.98 9.9 49.8 37 -3.9 24.9
02:50 1017 30.03 846 24.98 9.9 49.7 37 -4 24.7
02:55 1017 30.03 846 24.98 9.7 49.5 38 -3.7 25.3
03:00 1017 30.03 846 24.98 9.5 49.1 39 -3.8 25.2
03:05 1017 30.03 846 24.98 9.5 49 38 -4.2 24.5
03:10 1017 30.03 846 24.98 9.8 49.7 38 -3.9 25.1
03:15 1017 30.03 846 24.98 9.6 49.2 40 -3.5 25.8
03:20 1017 30.03 846 24.98 9.1 48.5 41 -3.4 25.8
03:25 1017 30.03 846 24.98 9 48.1 41 -3.5 25.8
03:30 1017 30.03 846 24.98 9 48.1 41 -3.6 25.5
03:35 1017 30.03 846 24.98 9.1 48.4 40 -3.9 25.1
03:40 1017 30.03 846 24.98 9.4 49 40 -3.6 25.5
03:45 1017 30.03 846 24.98 9.5 49 39 -3.7 25.3
03:50 1017 30.03 846 24.98 9.8 49.6 37 -4.2 24.5
03:55 1017 30.03 846 24.98 10.4 50.7 36 -4.2 24.5
04:00 1017 30.03 846 24.98 10.5 50.9 36 -3.9 25.1
04:05 1017 30.03 846 24.98 10.1 50.1 39 -3.4 25.9
04:10 1017 30.03 846 24.98 9.9 49.8 38 -3.6 25.6
04:15 1017 30.03 846 24.98 9.7 49.4 39 -3.5 25.7
04:20 1017 30.03 846 24.98 9.4 48.9 40 -3.4 25.8
04:25 1017 30.03 846 24.98 9.4 48.9 40 -3.4 25.9
04:30 1017 30.03 846 24.98 9.3 48.7 41 -3.4 25.8
04:35 1017 30.03 846 24.98 9.3 48.7 39 -3.8 25.2
04:40 1017 30.03 846 24.98 9.5 49 38 -4 24.8
04:45 1017 30.03 846 24.98 9.7 49.5 37 -4.4 24.1
04:50 1017 30.03 846 24.98 9.9 49.8 39 -3.3 26
04:55 1017 30.03 846 24.98 9.3 48.7 40 -3.7 25.3
05:00 1017 30.03 846 24.98 9 48.2 42 -3.3 26
05:05 1017 30.03 846 24.98 8.5 47.2 45 -2.6 27.3
05:10 1017 30.03 846 24.98 7.4 45.4 49 -2.5 27.5
05:15 1017 30.03 846 24.98 7.2 45 49 -2.8 27
05:20 1017 30.03 846 24.98 7.5 45.4 45 -3.8 25.2
05:25 1017 30.03 846 24.98 8.2 46.8 44 -3.2 26.2
05:30 1017 30.03 846 24.98 8.3 46.9 44 -3.2 26.2
05:35 1017 30.03 846 24.98 8.5 47.3 43 -3.4 26
05:40 1017 30.03 846 24.98 8.7 47.7 43 -3.3 26.1
05:45 1017 30.03 846 24.98 8.8 47.8 43 -3.1 26.4
05:50 1017 30.03 846 24.98 8.8 47.8 43 -3.2 26.3
05:55 1017 30.03 846 24.98 9.1 48.3 42 -3 26.5
06:00 1017 30.03 846 24.98 9.1 48.4 43 -2.9 26.8
06:05 1017 30.03 846 24.98 9.1 48.3 42 -3.1 26.4
06:10 1017 30.03 846 24.98 9 48.2 42 -3.2 26.3
06:15 1017 30.03 846 24.98 8.9 47.9 44 -2.6 27.3
06:20 1017 30.03 846 24.98 8.7 47.7 45 -2.6 27.3
06:25 1017 30.03 846 24.98 9 48.1 43 -3 26.6
06:30 1017 30.03 846 24.98 9.7 49.4 41 -3 26.6
06:35 1017 30.03 846 24.98 10 49.9 41 -2.7 27.2
06:40 1017 30.03 846 24.98 10.4 50.7 40 -2.6 27.4
06:45 1017 30.03 847 25.01 10.8 51.4 40 -2.4 27.6
06:50 1017 30.03 846 24.98 10.9 51.7 39 -2.4 27.7
06:55 1017 30.03 846 24.98 11.3 52.4 38 -2.3 27.9
07:00 1017 30.03 846 24.98 11.5 52.7 39 -2 28.5
07:05 1017 30.03 846 24.98 11.6 52.8 40 -1.5 29.2
07:10 1017 30.03 846 24.98 11.5 52.7 43 -0.7 30.8
07:15 1017 30.03 846 24.98 11.6 52.9 44 -0.1 31.9
07:20 1017 30.03 846 24.98 11.4 52.6 45 0.1 32.1
07:25 1017 30.03 846 24.98 11.2 52.1 47 0.3 32.5
07:30 1017 30.03 846 24.98 11.2 52.2 47 0.4 32.6
07:35 1017 30.03 846 24.98 11.2 52.2 49 0.9 33.7
07:40 1017 30.03 846 24.98 11.2 52.1 49 1.1 33.9
07:45 1017 30.03 846 24.98 11.5 52.7 49 1.2 34.2
07:50 1017 30.03 846 24.98 11.9 53.3 46 0.6 33.1
07:55 1017 30.03 846 24.98 12.5 54.6 40 -0.5 31
08:00 1017 30.03 846 24.98 13.7 56.6 37 -0.8 30.6
08:05 1017 30.03 846 24.98 14.2 57.5 34 -1.5 29.3
08:10 1017 30.03 846 24.98 14.7 58.5 32 -1.9 28.6
08:15 1017 30.03 846 24.98 15.3 59.6 30 -2.3 27.9
08:20 1017 30.03 846 24.98 15.7 60.3 27 -3 26.6
08:25 1017 30.03 846 24.98 16 60.7 29 -2.2 28.1
08:30 1017 30.03 846 24.98 15.9 60.6 29 -1.8 28.8
08:35 1017 30.03 846 24.98 16.4 61.5 27 -2.3 27.8
08:40 1017 30.03 846 24.98 17 62.6 27 -2.2 28
08:45 1017 30.03 846 24.98 17.1 62.7 27 -2 28.4
08:50 1017 30.03 846 24.98 17.6 63.6 26 -2 28.5
08:55 1017 30.03 846 24.98 17.9 64.3 26 -1.5 29.3
09:00 1017 30.03 846 24.98 17.8 64 26 -1.9 28.5
09:05 1017 30.03 846 24.98 18.1 64.5 25 -2.2 28.1
09:10 1017 30.03 846 24.98 18.7 65.7 23 -2.8 26.9
09:15 1017 30.03 846 24.98 19 66.1 24 -2.1 28.2
09:20 1017 30.03 846 24.98 18.4 65.1 23 -2.8 26.9
09:25 1017 30.03 846 24.98 18.9 66 23 -2.4 27.7
09:30 1017 30.03 846 24.98 17.9 64.3 24 -2.6 27.3
09:35 1017 30.03 846 24.98 18 64.3 24 -2.8 27
09:40 1017 30.03 846 24.98 19.2 66.5 24 -1.7 29
09:45 1017 30.03 846 24.98 19.6 67.3 22 -2.3 27.8
09:50 1017 30.03 846 24.98 20.1 68.3 22 -1.8 28.7
09:55 1017 30.03 846 24.98 20.2 68.3 23 -1.6 29.2
10:00 1017 30.03 846 24.98 20.7 69.3 22 -1.5 29.3
10:05 1017 30.03 846 24.98 20.3 68.6 22 -1.9 28.6
10:10 1017 30.03 846 24.98 20.2 68.4 22 -2.2 28
10:15 1016 30 846 24.98 20.1 68.1 22 -2.1 28.2
10:20 1016 30 846 24.98 20.8 69.5 21 -2.4 27.7
10:25 1016 30 846 24.98 20.5 68.9 22 -2 28.3
10:30 1016 30 846 24.98 21.1 69.9 21 -2.1 28.3
10:35 1016 30 846 24.98 20.8 69.4 21 -2.2 28.1
10:40 1016 30 845 24.95 21.5 70.6 21 -1.4 29.4
10:45 1016 30 845 24.95 21.7 71 20 -2.2 28
10:50 1016 30 845 24.95 22 71.6 21 -1.4 29.4
10:55 1016 30 845 24.95 21.2 70.1 20 -2.5 27.5
11:00 1016 30 845 24.95 21.9 71.4 19 -2.4 27.7
11:05 1016 30 845 24.95 22.1 71.8 20 -1.5 29.3
11:10 1016 30 845 24.95 21.3 70.3 20 -2.5 27.5
11:15 1016 30 845 24.95 21 69.7 19 -3.6 25.6
11:20 1016 30 845 24.95 21.9 71.3 17 -3.7 25.3
11:25 1016 30 845 24.95 22.2 72 15 -5.2 22.7
11:30 1016 30 845 24.95 22.7 72.9 17 -3.3 26.1
11:35 1016 30 845 24.95 22.7 72.9 17 -3.7 25.4
11:40 1016 30 845 24.95 23 73.5 17 -2.8 26.9
11:45 1016 30 845 24.95 23.3 73.9 17 -3.2 26.2
11:50 1016 30 845 24.95 23.2 73.7 18 -2.3 27.8
11:55 1015 29.97 845 24.95 22.8 73 18 -2.4 27.6
12:00 1015 29.97 845 24.95 22.9 73.2 16 -4.2 24.5
12:05 1015 29.97 845 24.95 23.4 74.1 17 -2.9 26.7
12:10 1015 29.97 845 24.95 23.1 73.6 16 -3.5 25.6
12:15 1015 29.97 844 24.92 23.2 73.8 15 -4.4 24
12:20 1015 29.97 844 24.92 22.5 72.5 17 -3.3 26
12:25 1015 29.97 844 24.92 23.4 74.1 15 -4.7 23.6
12:30 1015 29.97 844 24.92 23.5 74.3 15 -4.7 23.6
12:35 1015 29.97 844 24.92 23.8 74.8 15 -4.2 24.4
12:40 1015 29.97 844 24.92 24 75.1 14 -4.6 23.7
12:45 1015 29.97 844 24.92 24.2 75.6 15 -3.5 25.8
12:50 1015 29.97 844 24.92 23.8 74.8 14 -4.7 23.6
12:55 1015 29.97 844 24.92 24.3 75.7 14 -4.7 23.6
13:00 1015 29.97 844 24.92 24.5 76.1 13 -5 23
13:05 1015 29.97 844 24.92 23.5 74.4 15 -4.1 24.6
13:10 1015 29.97 844 24.92 23.9 75.1 13 -5.7 21.7
13:15 1015 29.97 844 24.92 24.6 76.2 13 -5.3 22.4
13:20 1015 29.97 844 24.92 23.9 75.1 15 -4.3 24.3
13:25 1015 29.97 844 24.92 24.6 76.3 13 -5.1 22.9
13:30 1015 29.97 844 24.92 24.9 76.8 14 -4.3 24.2
13:35 1014 29.94 844 24.92 23.8 74.8 15 -4.1 24.6
13:40 1014 29.94 844 24.92 24 75.2 14 -4.6 23.8
13:45 1014 29.94 844 24.92 24.1 75.3 15 -3.7 25.4
13:50 1014 29.94 844 24.92 24.7 76.4 13 -4.9 23.1
13:55 1014 29.94 843 24.89 24.8 76.6 13 -4.9 23.1
14:00 1014 29.94 843 24.89 25.3 77.5 13 -4.7 23.6
14:05 1014 29.94 843 24.89 25.8 78.4 13 -4.7 23.6
14:10 1014 29.94 843 24.89 25.6 78.1 13 -4.5 23.9
14:15 1014 29.94 843 24.89 25.8 78.4 13 -4.8 23.4
14:20 1014 29.94 843 24.89 24.8 76.6 13 -5.1 22.9
14:25 1014 29.94 843 24.89 23.7 74.7 14 -5 23.1
14:30 1014 29.94 843 24.89 23.8 74.9 14 -4.8 23.4
14:35 1014 29.94 843 24.89 24.4 76 14 -4.5 23.9
14:40 1014 29.94 843 24.89 23.8 74.8 14 -5.1 22.8
14:45 1014 29.94 843 24.89 24 75.3 14 -4.9 23.2
14:50 1014 29.94 843 24.89 24.1 75.4 14 -5.1 22.9
14:55 1014 29.94 843 24.89 23.5 74.4 14 -4.9 23.2
15:00 1014 29.94 843 24.89 24 75.2 14 -4.9 23.1
15:05 1013 29.91 843 24.89 23.7 74.7 15 -4.1 24.5
15:10 1013 29.91 843 24.89 24 75.2 14 -4.7 23.5
15:15 1013 29.91 843 24.89 24.4 76 14 -5 23
15:20 1013 29.91 842 24.86 23.6 74.4 14 -4.9 23.2
15:25 1013 29.91 842 24.86 23.4 74.1 14 -5 22.9
15:30 1013 29.91 842 24.86 23.7 74.6 15 -4.4 24
15:35 1013 29.91 842 24.86 24.5 76 14 -4.9 23.2
15:40 1013 29.91 842 24.86 24.4 76 14 -4.7 23.5
15:45 1013 29.91 842 24.86 24.2 75.6 14 -4.3 24.2
15:50 1013 29.91 842 24.86 23.5 74.3 14 -5 22.9
15:55 1013 29.91 842 24.86 23.2 73.7 15 -4.8 23.3
16:00 1013 29.91 842 24.86 23.7 74.6 14 -5.2 22.6
16:05 1013 29.91 842 24.86 24 75.1 13 -5.5 22.1
16:10 1013 29.91 842 24.86 24.3 75.7 13 -5.3 22.4
16:15 1013 29.91 842 24.86 24.6 76.2 14 -4.2 24.4
16:20 1013 29.91 842 24.86 24.4 75.9 14 -4.3 24.2
16:25 1013 29.91 842 24.86 24.5 76 14 -4.5 23.9
16:30 1013 29.91 842 24.86 24.4 75.9 14 -4.3 24.3
16:35 1013 29.91 842 24.86 24 75.2 15 -4.4 24
16:40 1013 29.91 842 24.86 23.8 74.8 14 -4.9 23.1
16:45 1013 29.91 842 24.86 23.5 74.4 15 -4 24.8
16:50 1013 29.91 842 24.86 23.5 74.2 16 -4 24.8
16:55 1013 29.91 842 24.86 23 73.4 18 -2.4 27.6
17:00 1013 29.91 842 24.86 22.6 72.8 20 -1.5 29.3
17:05 1014 29.94 843 24.89 21.9 71.3 21 -1.3 29.7
17:10 1014 29.94 843 24.89 20.5 68.8 24 -0.9 30.4
17:15 1014 29.94 843 24.89 19.8 67.7 26 -0.3 31.4
17:20 1015 29.97 844 24.92 19.3 66.8 31 1.9 35.4
17:25 1015 29.97 845 24.95 18.4 65.1 36 3.1 37.6
17:30 1016 30 845 24.95 17.1 62.7 45 5.2 41.3
17:35 1016 30 845 24.95 15.9 60.6 50 5.5 41.8
17:40 1016 30 845 24.95 15.4 59.7 49 4.8 40.7
17:45 1016 30 846 24.98 15.4 59.6 51 5.3 41.5
17:50 1016 30 846 24.98 15.4 59.7 51 5.4 41.7
17:55 1016 30 846 24.98 15.3 59.5 53 5.8 42.4
18:00 1016 30 846 24.98 14.8 58.7 57 6.5 43.7
18:05 1016 30 846 24.98 14.4 57.9 59 6.5 43.7
18:10 1016 30 846 24.98 14.2 57.6 58 6.1 42.9
18:15 1016 30 845 24.95 14.2 57.6 54 5 41
18:20 1016 30 845 24.95 14.1 57.4 55 5.3 41.5
18:25 1016 30 845 24.95 14 57.1 57 5.7 42.3
18:30 1016 30 845 24.95 13.7 56.7 60 6.3 43.3
18:35 1016 30 845 24.95 13.7 56.6 60 6 42.9
18:40 1016 30 845 24.95 13.5 56.4 59 5.7 42.3
18:45 1015 29.97 845 24.95 13.4 56 59 5.6 42.1
18:50 1016 30 845 24.95 13.2 55.8 64 6.6 43.8
18:55 1016 30 845 24.95 13.3 56 54 4.3 39.8
19:00 1015 29.97 845 24.95 13.8 56.9 54 4.8 40.6
19:05 1015 29.97 845 24.95 14.1 57.3 50 3.8 38.9
19:10 1016 30 845 24.95 14.1 57.4 59 6.3 43.3
19:15 1016 30 845 24.95 13.5 56.3 56 4.9 40.8
19:20 1016 30 845 24.95 13.8 56.9 52 4.3 39.7
19:25 1016 30 845 24.95 14 57.2 55 5.3 41.5
19:30 1016 30 845 24.95 13.6 56.6 57 5.3 41.6
19:35 1016 30 845 24.95 13.6 56.4 57 5.4 41.6
19:40 1016 30 845 24.95 13.7 56.6 60 6.2 43.1
19:45 1016 30 845 24.95 13.7 56.7 61 6.3 43.4
19:50 1016 30 845 24.95 13.8 56.8 61 6.4 43.6
19:55 1016 30 845 24.95 13.8 56.8 61 6.5 43.8
20:00 1016 30 845 24.95 13.7 56.7 58 5.8 42.4
20:05 1016 30 845 24.95 13.8 56.8 59 6.1 42.9
20:10 1016 30 845 24.95 13.9 57.1 59 6 42.8
20:15 1016 30 845 24.95 13.7 56.7 66 7.5 45.5
20:20 1016 30 845 24.95 12.7 54.8 69 7.1 44.8
20:25 1016 30 845 24.95 12.4 54.3 70 7.2 44.9
20:30 1016 30 845 24.95 12.4 54.3 71 7.3 45.1
20:35 1016 30 845 24.95 12.3 54.1 69 6.8 44.3
20:40 1016 30 845 24.95 12.4 54.3 69 6.9 44.4
20:45 1016 30 845 24.95 12.5 54.5 70 7.2 45
20:50 1016 30 845 24.95 12.5 54.5 70 7.3 45.1
20:55 1016 30 845 24.95 12.5 54.5 71 7.4 45.2
21:00 1016 30 845 24.95 12.4 54.3 71 7.2 45
21:05 1016 30 845 24.95 12.3 54.1 70 7 44.6
21:10 1016 30 846 24.98 12.2 53.9 70 7 44.6
21:15 1016 30 846 24.98 11.9 53.5 70 6.7 44.1
21:20 1016 30 846 24.98 11.8 53.2 70 6.5 43.7
21:25 1017 30.03 846 24.98 11.6 52.8 70 6.3 43.4
21:30 1017 30.03 846 24.98 11.3 52.3 69 5.9 42.6
21:35 1017 30.03 846 24.98 11.1 51.9 69 5.6 42
21:40 1017 30.03 846 24.98 11 51.7 69 5.5 41.9
21:45 1017 30.03 846 24.98 10.8 51.4 69 5.3 41.6
21:50 1017 30.03 846 24.98 10.7 51.3 69 5.4 41.7
21:55 1017 30.03 846 24.98 10.5 51 71 5.6 42.1
22:00 1017 30.03 846 24.98 10.1 50.2 75 5.9 42.7
22:05 1017 30.03 846 24.98 9.8 49.6 76 5.7 42.3
22:10 1017 30.03 847 25.01 9.5 49.1 77 5.7 42.2
22:15 1017 30.03 846 24.98 9.5 49.1 77 5.7 42.3
22:20 1017 30.03 846 24.98 9.5 49.1 77 5.8 42.4
22:25 1017 30.03 847 25.01 9.6 49.2 78 5.9 42.6
22:30 1017 30.03 847 25.01 9.6 49.3 78 6 42.7
22:35 1017 30.03 847 25.01 9.6 49.3 78 6 42.8
22:40 1017 30.03 847 25.01 9.7 49.4 78 6 42.8
22:45 1018 30.06 847 25.01 9.7 49.5 78 6 42.8
22:50 1018 30.06 847 25.01 9.8 49.6 77 6 42.8
22:55 1018 30.06 847 25.01 9.8 49.6 77 6 42.8
23:00 1018 30.06 847 25.01 9.8 49.7 77 6 42.9
23:05 1017 30.03 847 25.01 9.8 49.7 78 6.1 43
23:10 1017 30.03 847 25.01 9.8 49.7 77 6 42.8
23:15 1017 30.03 847 25.01 9.8 49.7 77 6 42.8
23:20 1018 30.06 847 25.01 9.9 49.9 76 5.9 42.6
23:25 1018 30.06 847 25.01 10 50 76 5.9 42.7
23:30 1018 30.06 847 25.01 10 50.1 76 6 42.8
23:35 1018 30.06 847 25.01 10 50.1 76 6 42.9
23:40 1018 30.06 847 25.01 10 50.1 76 6.1 42.9
23:45 1018 30.06 847 25.01 10.1 50.1 76 6.1 43.1
23:50 1018 30.06 847 25.01 10.1 50.1 76 6 42.8
23:55 1018 30.06 847 25.01 10.2 50.3 76 6.1 43
24:00 1018 30.06 847 25.01 10.1 50.2 76 6.1 42.9